Pine Lake, New York
Current Conditions -  °F | °C
As of 3:55 AM on Saturday 22 Nov 2014 (Local Time) from KNY0 Reporting Station
Clear Clear  
Wind Chill:   Ceiling: Unl
Heat Index: 17°   Visibility: 10mi
Dew Point: 10°   Wind: 7mph
Humidity: 75%   Direction: 250°WSW
Pressure: 30.36"   Gusts: NA
Location:  43.2783°N, 74.5481°W
Report Text: KNY0 220855Z AUTO 25006KT 10SM CLR M08/M12 A3036 RMK AO2 T10831120
Loading
Personal Weather Stations






























Interactive Weather Map New forecast layout! Learn more

10-Day Weather Forecast

Advertisements
Track Severe Weather on mobile